sensor_id;sensor_type;location;lat;lon;timestamp;temperature;humidity
19348;DHT22;9810;52.480;9.806;2022-11-13T00:00:07;4.90;99.90
19348;DHT22;9810;52.480;9.806;2022-11-13T00:02:35;4.90;99.90
19348;DHT22;9810;52.480;9.806;2022-11-13T00:05:02;5.00;99.90
19348;DHT22;9810;52.480;9.806;2022-11-13T00:07:30;4.90;99.90
19348;DHT22;9810;52.480;9.806;2022-11-13T00:09:57;4.70;99.90
19348;DHT22;9810;52.480;9.806;2022-11-13T00:12:27;4.60;99.90
19348;DHT22;9810;52.480;9.806;2022-11-13T00:14:54;4.60;99.90
19348;DHT22;9810;52.480;9.806;2022-11-13T00:17:22;4.60;99.90
19348;DHT22;9810;52.480;9.806;2022-11-13T00:19:49;4.50;99.90
19348;DHT22;9810;52.480;9.806;2022-11-13T00:22:16;4.60;99.90
19348;DHT22;9810;52.480;9.806;2022-11-13T00:24:44;4.70;99.90
19348;DHT22;9810;52.480;9.806;2022-11-13T00:27:11;4.50;99.90
19348;DHT22;9810;52.480;9.806;2022-11-13T00:29:40;4.50;99.90
19348;DHT22;9810;52.480;9.806;2022-11-13T00:32:07;4.50;99.90
19348;DHT22;9810;52.480;9.806;2022-11-13T00:34:34;4.50;99.90
19348;DHT22;9810;52.480;9.806;2022-11-13T00:37:02;4.40;99.90
19348;DHT22;9810;52.480;9.806;2022-11-13T00:39:29;4.30;99.90
19348;DHT22;9810;52.480;9.806;2022-11-13T00:41:56;4.10;99.90
19348;DHT22;9810;52.480;9.806;2022-11-13T00:44:24;4.10;99.90
19348;DHT22;9810;52.480;9.806;2022-11-13T00:46:53;4.10;99.90
19348;DHT22;9810;52.480;9.806;2022-11-13T00:49:20;4.10;99.90
19348;DHT22;9810;52.480;9.806;2022-11-13T00:51:47;4.00;99.90
19348;DHT22;9810;52.480;9.806;2022-11-13T00:54:15;4.00;99.90
19348;DHT22;9810;52.480;9.806;2022-11-13T00:56:42;4.00;99.90
19348;DHT22;9810;52.480;9.806;2022-11-13T00:59:09;4.10;99.90
19348;DHT22;9810;52.480;9.806;2022-11-13T01:01:37;4.10;99.90
19348;DHT22;9810;52.480;9.806;2022-11-13T01:04:06;4.10;99.90
19348;DHT22;9810;52.480;9.806;2022-11-13T01:06:33;4.10;99.90
19348;DHT22;9810;52.480;9.806;2022-11-13T01:09:00;3.80;99.90
19348;DHT22;9810;52.480;9.806;2022-11-13T01:11:29;3.90;99.90
19348;DHT22;9810;52.480;9.806;2022-11-13T01:13:57;3.90;99.90
19348;DHT22;9810;52.480;9.806;2022-11-13T01:16:26;3.90;99.90
19348;DHT22;9810;52.480;9.806;2022-11-13T01:18:54;3.70;99.90
19348;DHT22;9810;52.480;9.806;2022-11-13T01:21:25;3.70;99.90
19348;DHT22;9810;52.480;9.806;2022-11-13T01:23:52;3.60;99.90
19348;DHT22;9810;52.480;9.806;2022-11-13T01:26:22;3.60;99.90
19348;DHT22;9810;52.480;9.806;2022-11-13T01:28:50;3.60;99.90
19348;DHT22;9810;52.480;9.806;2022-11-13T01:31:19;3.60;99.90
19348;DHT22;9810;52.480;9.806;2022-11-13T01:33:47;3.50;99.90
19348;DHT22;9810;52.480;9.806;2022-11-13T01:36:16;3.60;99.90
19348;DHT22;9810;52.480;9.806;2022-11-13T01:38:46;3.60;99.90
19348;DHT22;9810;52.480;9.806;2022-11-13T01:41:16;3.50;99.90
19348;DHT22;9810;52.480;9.806;2022-11-13T01:43:44;3.40;99.90
19348;DHT22;9810;52.480;9.806;2022-11-13T01:46:33;3.40;99.90
19348;DHT22;9810;52.480;9.806;2022-11-13T01:49:09;3.40;99.90
19348;DHT22;9810;52.480;9.806;2022-11-13T01:51:43;3.40;99.90
19348;DHT22;9810;52.480;9.806;2022-11-13T01:54:16;3.50;99.90
19348;DHT22;9810;52.480;9.806;2022-11-13T01:56:45;3.50;99.90
19348;DHT22;9810;52.480;9.806;2022-11-13T01:59:16;3.40;99.90
19348;DHT22;9810;52.480;9.806;2022-11-13T02:01:45;3.40;99.90
19348;DHT22;9810;52.480;9.806;2022-11-13T02:04:12;3.40;99.90
19348;DHT22;9810;52.480;9.806;2022-11-13T02:06:42;3.40;99.90
19348;DHT22;9810;52.480;9.806;2022-11-13T02:09:13;3.30;99.90
19348;DHT22;9810;52.480;9.806;2022-11-13T02:11:42;3.20;99.90
19348;DHT22;9810;52.480;9.806;2022-11-13T02:14:11;3.00;99.90
19348;DHT22;9810;52.480;9.806;2022-11-13T02:16:39;3.00;99.90
19348;DHT22;9810;52.480;9.806;2022-11-13T02:19:13;3.00;99.90
19348;DHT22;9810;52.480;9.806;2022-11-13T02:21:49;2.90;99.90
19348;DHT22;9810;52.480;9.806;2022-11-13T02:24:23;2.90;99.90
19348;DHT22;9810;52.480;9.806;2022-11-13T02:26:53;3.00;99.90
19348;DHT22;9810;52.480;9.806;2022-11-13T02:29:21;3.10;99.90
19348;DHT22;9810;52.480;9.806;2022-11-13T02:31:48;3.00;99.90
19348;DHT22;9810;52.480;9.806;2022-11-13T02:34:16;3.00;99.90
19348;DHT22;9810;52.480;9.806;2022-11-13T02:36:43;3.00;99.90
19348;DHT22;9810;52.480;9.806;2022-11-13T02:39:12;2.90;99.90
19348;DHT22;9810;52.480;9.806;2022-11-13T02:41:41;2.80;99.90
19348;DHT22;9810;52.480;9.806;2022-11-13T02:44:08;2.70;99.90
19348;DHT22;9810;52.480;9.806;2022-11-13T02:46:36;2.80;99.90
19348;DHT22;9810;52.480;9.806;2022-11-13T02:49:04;2.80;99.90
19348;DHT22;9810;52.480;9.806;2022-11-13T02:51:32;2.70;99.90
19348;DHT22;9810;52.480;9.806;2022-11-13T02:53:59;2.80;99.90
19348;DHT22;9810;52.480;9.806;2022-11-13T02:56:27;2.80;99.90
19348;DHT22;9810;52.480;9.806;2022-11-13T02:58:56;2.80;99.90
19348;DHT22;9810;52.480;9.806;2022-11-13T03:01:23;2.80;99.90
19348;DHT22;9810;52.480;9.806;2022-11-13T03:03:50;2.80;99.90
19348;DHT22;9810;52.480;9.806;2022-11-13T03:06:18;2.80;99.90
19348;DHT22;9810;52.480;9.806;2022-11-13T03:08:45;2.80;99.90
19348;DHT22;9810;52.480;9.806;2022-11-13T03:11:12;2.80;99.90
19348;DHT22;9810;52.480;9.806;2022-11-13T03:13:39;2.80;99.90
19348;DHT22;9810;52.480;9.806;2022-11-13T03:16:10;2.90;99.90
19348;DHT22;9810;52.480;9.806;2022-11-13T03:18:38;2.90;99.90
19348;DHT22;9810;52.480;9.806;2022-11-13T03:21:07;2.90;99.90
19348;DHT22;9810;52.480;9.806;2022-11-13T03:23:35;2.90;99.90
19348;DHT22;9810;52.480;9.806;2022-11-13T03:26:04;2.90;99.90
19348;DHT22;9810;52.480;9.806;2022-11-13T03:28:31;2.90;99.90
19348;DHT22;9810;52.480;9.806;2022-11-13T03:30:59;3.00;99.90
19348;DHT22;9810;52.480;9.806;2022-11-13T03:33:28;2.90;99.90
19348;DHT22;9810;52.480;9.806;2022-11-13T03:35:55;3.00;99.90
19348;DHT22;9810;52.480;9.806;2022-11-13T03:38:23;2.90;99.90
19348;DHT22;9810;52.480;9.806;2022-11-13T03:40:50;3.10;99.90
19348;DHT22;9810;52.480;9.806;2022-11-13T03:43:18;3.00;99.90
19348;DHT22;9810;52.480;9.806;2022-11-13T03:45:46;2.90;99.90
19348;DHT22;9810;52.480;9.806;2022-11-13T03:48:14;3.00;99.90
19348;DHT22;9810;52.480;9.806;2022-11-13T03:50:46;3.00;99.90
19348;DHT22;9810;52.480;9.806;2022-11-13T03:53:14;3.10;99.90
19348;DHT22;9810;52.480;9.806;2022-11-13T03:55:42;3.10;99.90
19348;DHT22;9810;52.480;9.806;2022-11-13T03:58:09;3.00;99.90
19348;DHT22;9810;52.480;9.806;2022-11-13T04:00:38;3.00;99.90
19348;DHT22;9810;52.480;9.806;2022-11-13T04:03:06;3.00;99.90
19348;DHT22;9810;52.480;9.806;2022-11-13T04:05:33;3.00;99.90
19348;DHT22;9810;52.480;9.806;2022-11-13T04:08:02;3.00;99.90
19348;DHT22;9810;52.480;9.806;2022-11-13T04:10:30;2.90;99.90
19348;DHT22;9810;52.480;9.806;2022-11-13T04:12:57;2.90;99.90
19348;DHT22;9810;52.480;9.806;2022-11-13T04:15:25;2.80;99.90
19348;DHT22;9810;52.480;9.806;2022-11-13T04:17:52;2.80;99.90
19348;DHT22;9810;52.480;9.806;2022-11-13T04:20:19;2.80;99.90
19348;DHT22;9810;52.480;9.806;2022-11-13T04:22:47;2.90;99.90
19348;DHT22;9810;52.480;9.806;2022-11-13T04:25:16;2.90;99.90
19348;DHT22;9810;52.480;9.806;2022-11-13T04:27:43;2.90;99.90
19348;DHT22;9810;52.480;9.806;2022-11-13T04:30:11;3.00;99.90
19348;DHT22;9810;52.480;9.806;2022-11-13T04:32:38;2.90;99.90
19348;DHT22;9810;52.480;9.806;2022-11-13T04:35:06;3.00;99.90
19348;DHT22;9810;52.480;9.806;2022-11-13T04:37:34;3.00;99.90
19348;DHT22;9810;52.480;9.806;2022-11-13T04:40:01;3.00;99.90
19348;DHT22;9810;52.480;9.806;2022-11-13T04:42:30;3.00;99.90
19348;DHT22;9810;52.480;9.806;2022-11-13T04:45:15;3.00;99.90
19348;DHT22;9810;52.480;9.806;2022-11-13T04:47:43;3.10;99.90
19348;DHT22;9810;52.480;9.806;2022-11-13T04:50:11;3.10;99.90
19348;DHT22;9810;52.480;9.806;2022-11-13T04:52:39;3.10;99.90
19348;DHT22;9810;52.480;9.806;2022-11-13T04:55:08;3.00;99.90
19348;DHT22;9810;52.480;9.806;2022-11-13T04:57:38;2.90;99.90
19348;DHT22;9810;52.480;9.806;2022-11-13T05:00:07;2.90;99.90
19348;DHT22;9810;52.480;9.806;2022-11-13T05:02:34;2.80;99.90
19348;DHT22;9810;52.480;9.806;2022-11-13T05:05:02;2.80;99.90
19348;DHT22;9810;52.480;9.806;2022-11-13T05:07:30;2.70;99.90
19348;DHT22;9810;52.480;9.806;2022-11-13T05:09:57;2.70;99.90
19348;DHT22;9810;52.480;9.806;2022-11-13T05:12:24;2.70;99.90
19348;DHT22;9810;52.480;9.806;2022-11-13T05:14:53;2.70;99.90
19348;DHT22;9810;52.480;9.806;2022-11-13T05:17:20;2.70;99.90
19348;DHT22;9810;52.480;9.806;2022-11-13T05:19:48;2.70;99.90
19348;DHT22;9810;52.480;9.806;2022-11-13T05:22:15;2.70;99.90
19348;DHT22;9810;52.480;9.806;2022-11-13T05:24:43;2.60;99.90
19348;DHT22;9810;52.480;9.806;2022-11-13T05:27:10;2.50;99.90
19348;DHT22;9810;52.480;9.806;2022-11-13T05:29:37;2.50;99.90
19348;DHT22;9810;52.480;9.806;2022-11-13T05:32:06;2.40;99.90
19348;DHT22;9810;52.480;9.806;2022-11-13T05:34:33;2.40;99.90
19348;DHT22;9810;52.480;9.806;2022-11-13T05:37:01;2.40;99.90
19348;DHT22;9810;52.480;9.806;2022-11-13T05:39:28;2.40;99.90
19348;DHT22;9810;52.480;9.806;2022-11-13T05:41:55;2.40;99.90
19348;DHT22;9810;52.480;9.806;2022-11-13T05:44:23;2.40;99.90
19348;DHT22;9810;52.480;9.806;2022-11-13T05:46:50;2.30;99.90
19348;DHT22;9810;52.480;9.806;2022-11-13T05:49:19;2.30;99.90
19348;DHT22;9810;52.480;9.806;2022-11-13T05:51:47;2.30;99.90
19348;DHT22;9810;52.480;9.806;2022-11-13T05:54:14;2.30;99.90
19348;DHT22;9810;52.480;9.806;2022-11-13T05:56:41;2.30;99.90
19348;DHT22;9810;52.480;9.806;2022-11-13T05:59:09;2.30;99.90
19348;DHT22;9810;52.480;9.806;2022-11-13T06:01:38;2.30;99.90
19348;DHT22;9810;52.480;9.806;2022-11-13T06:04:06;2.20;99.90
19348;DHT22;9810;52.480;9.806;2022-11-13T06:06:35;2.20;99.90
19348;DHT22;9810;52.480;9.806;2022-11-13T06:09:04;2.10;99.90
19348;DHT22;9810;52.480;9.806;2022-11-13T06:11:32;2.00;99.90
19348;DHT22;9810;52.480;9.806;2022-11-13T06:14:00;2.00;99.90
19348;DHT22;9810;52.480;9.806;2022-11-13T06:16:28;1.90;99.90
19348;DHT22;9810;52.480;9.806;2022-11-13T06:18:57;1.80;99.90
19348;DHT22;9810;52.480;9.806;2022-11-13T06:21:26;1.80;99.90
19348;DHT22;9810;52.480;9.806;2022-11-13T06:23:56;1.80;99.90
19348;DHT22;9810;52.480;9.806;2022-11-13T06:26:25;1.80;99.90
19348;DHT22;9810;52.480;9.806;2022-11-13T06:28:53;1.90;99.90
19348;DHT22;9810;52.480;9.806;2022-11-13T06:31:23;1.80;99.90
19348;DHT22;9810;52.480;9.806;2022-11-13T06:33:51;1.80;99.90
19348;DHT22;9810;52.480;9.806;2022-11-13T06:36:20;1.80;99.90
19348;DHT22;9810;52.480;9.806;2022-11-13T06:38:48;1.70;99.90
19348;DHT22;9810;52.480;9.806;2022-11-13T06:41:19;1.70;99.90
19348;DHT22;9810;52.480;9.806;2022-11-13T06:43:48;1.80;99.90
19348;DHT22;9810;52.480;9.806;2022-11-13T06:46:17;1.80;99.90
19348;DHT22;9810;52.480;9.806;2022-11-13T06:48:45;1.90;99.90
19348;DHT22;9810;52.480;9.806;2022-11-13T06:51:14;1.80;99.90
19348;DHT22;9810;52.480;9.806;2022-11-13T06:53:42;1.80;99.90
19348;DHT22;9810;52.480;9.806;2022-11-13T06:56:10;1.80;99.90
19348;DHT22;9810;52.480;9.806;2022-11-13T06:58:40;1.80;99.90
19348;DHT22;9810;52.480;9.806;2022-11-13T07:01:09;1.80;99.90
19348;DHT22;9810;52.480;9.806;2022-11-13T07:03:37;1.70;99.90
19348;DHT22;9810;52.480;9.806;2022-11-13T07:06:06;1.70;99.90
19348;DHT22;9810;52.480;9.806;2022-11-13T07:08:34;1.70;99.90
19348;DHT22;9810;52.480;9.806;2022-11-13T07:11:02;1.70;99.90
19348;DHT22;9810;52.480;9.806;2022-11-13T07:13:28;1.60;99.90
19348;DHT22;9810;52.480;9.806;2022-11-13T07:16:03;1.70;99.90
19348;DHT22;9810;52.480;9.806;2022-11-13T07:18:30;1.80;99.90
19348;DHT22;9810;52.480;9.806;2022-11-13T07:21:01;1.90;99.90
19348;DHT22;9810;52.480;9.806;2022-11-13T07:23:29;2.00;99.90
19348;DHT22;9810;52.480;9.806;2022-11-13T07:25:56;2.30;99.90
19348;DHT22;9810;52.480;9.806;2022-11-13T07:28:24;2.60;99.90
19348;DHT22;9810;52.480;9.806;2022-11-13T07:30:51;2.70;99.90
19348;DHT22;9810;52.480;9.806;2022-11-13T07:33:20;2.80;99.90
19348;DHT22;9810;52.480;9.806;2022-11-13T07:35:47;2.90;99.90
19348;DHT22;9810;52.480;9.806;2022-11-13T07:38:15;3.00;99.90
19348;DHT22;9810;52.480;9.806;2022-11-13T07:40:42;3.00;99.90
19348;DHT22;9810;52.480;9.806;2022-11-13T07:43:08;3.00;99.90
19348;DHT22;9810;52.480;9.806;2022-11-13T07:45:36;3.10;99.90
19348;DHT22;9810;52.480;9.806;2022-11-13T07:48:04;3.10;99.90
19348;DHT22;9810;52.480;9.806;2022-11-13T07:50:34;3.20;99.90
19348;DHT22;9810;52.480;9.806;2022-11-13T07:53:03;3.20;99.90
19348;DHT22;9810;52.480;9.806;2022-11-13T07:55:32;3.40;99.90
19348;DHT22;9810;52.480;9.806;2022-11-13T07:58:00;3.40;99.90
19348;DHT22;9810;52.480;9.806;2022-11-13T08:00:29;3.50;99.90
19348;DHT22;9810;52.480;9.806;2022-11-13T08:02:58;3.60;99.90
19348;DHT22;9810;52.480;9.806;2022-11-13T08:05:31;3.90;99.90
19348;DHT22;9810;52.480;9.806;2022-11-13T08:07:59;4.00;99.90
19348;DHT22;9810;52.480;9.806;2022-11-13T08:10:26;4.00;99.90
19348;DHT22;9810;52.480;9.806;2022-11-13T08:12:58;4.10;99.90
19348;DHT22;9810;52.480;9.806;2022-11-13T08:15:26;4.20;99.90
19348;DHT22;9810;52.480;9.806;2022-11-13T08:17:54;4.20;99.90
19348;DHT22;9810;52.480;9.806;2022-11-13T08:20:22;4.50;99.90
19348;DHT22;9810;52.480;9.806;2022-11-13T08:22:51;4.60;99.90
19348;DHT22;9810;52.480;9.806;2022-11-13T08:25:18;5.00;99.90
19348;DHT22;9810;52.480;9.806;2022-11-13T08:27:46;4.80;99.90
19348;DHT22;9810;52.480;9.806;2022-11-13T08:30:14;4.70;99.90
19348;DHT22;9810;52.480;9.806;2022-11-13T08:32:41;4.70;99.90
19348;DHT22;9810;52.480;9.806;2022-11-13T08:35:09;4.80;99.90
19348;DHT22;9810;52.480;9.806;2022-11-13T08:37:36;5.30;99.90
19348;DHT22;9810;52.480;9.806;2022-11-13T08:40:07;5.50;99.90
19348;DHT22;9810;52.480;9.806;2022-11-13T08:42:34;6.70;99.90
19348;DHT22;9810;52.480;9.806;2022-11-13T08:45:02;7.30;99.90
19348;DHT22;9810;52.480;9.806;2022-11-13T08:47:29;6.50;99.90
19348;DHT22;9810;52.480;9.806;2022-11-13T08:49:56;6.80;99.90
19348;DHT22;9810;52.480;9.806;2022-11-13T08:52:24;6.90;99.90
19348;DHT22;9810;52.480;9.806;2022-11-13T08:54:51;7.20;99.90
19348;DHT22;9810;52.480;9.806;2022-11-13T08:57:20;8.50;99.90
19348;DHT22;9810;52.480;9.806;2022-11-13T08:59:48;8.50;99.90
19348;DHT22;9810;52.480;9.806;2022-11-13T09:02:15;7.10;99.90
19348;DHT22;9810;52.480;9.806;2022-11-13T09:04:42;6.60;99.90
19348;DHT22;9810;52.480;9.806;2022-11-13T09:07:10;6.50;99.90
19348;DHT22;9810;52.480;9.806;2022-11-13T09:09:37;6.90;99.90
19348;DHT22;9810;52.480;9.806;2022-11-13T09:12:05;6.60;99.90
19348;DHT22;9810;52.480;9.806;2022-11-13T09:14:34;6.80;99.90
19348;DHT22;9810;52.480;9.806;2022-11-13T09:17:02;7.50;99.90
19348;DHT22;9810;52.480;9.806;2022-11-13T09:19:29;6.80;99.90
19348;DHT22;9810;52.480;9.806;2022-11-13T09:21:56;6.90;99.90
19348;DHT22;9810;52.480;9.806;2022-11-13T09:24:25;7.20;99.90
19348;DHT22;9810;52.480;9.806;2022-11-13T09:26:52;7.50;99.90
19348;DHT22;9810;52.480;9.806;2022-11-13T09:29:19;7.30;99.90
19348;DHT22;9810;52.480;9.806;2022-11-13T09:31:52;7.10;99.90
19348;DHT22;9810;52.480;9.806;2022-11-13T09:34:20;7.30;99.90
19348;DHT22;9810;52.480;9.806;2022-11-13T09:36:47;7.10;99.90
19348;DHT22;9810;52.480;9.806;2022-11-13T09:39:14;6.60;99.90
19348;DHT22;9810;52.480;9.806;2022-11-13T09:41:46;6.60;99.90
19348;DHT22;9810;52.480;9.806;2022-11-13T09:44:17;6.20;99.90
19348;DHT22;9810;52.480;9.806;2022-11-13T09:46:48;6.10;99.90
19348;DHT22;9810;52.480;9.806;2022-11-13T09:49:26;5.70;99.90
19348;DHT22;9810;52.480;9.806;2022-11-13T09:51:58;5.70;99.90
19348;DHT22;9810;52.480;9.806;2022-11-13T09:54:25;5.80;99.90
19348;DHT22;9810;52.480;9.806;2022-11-13T09:57:00;5.80;99.90
19348;DHT22;9810;52.480;9.806;2022-11-13T09:59:36;5.70;99.90
19348;DHT22;9810;52.480;9.806;2022-11-13T10:02:16;5.80;99.90
19348;DHT22;9810;52.480;9.806;2022-11-13T10:04:55;5.70;99.90
19348;DHT22;9810;52.480;9.806;2022-11-13T10:07:32;5.50;99.90
19348;DHT22;9810;52.480;9.806;2022-11-13T10:10:36;5.40;99.90
19348;DHT22;9810;52.480;9.806;2022-11-13T10:13:10;5.10;99.90
19348;DHT22;9810;52.480;9.806;2022-11-13T10:15:40;5.30;99.90
19348;DHT22;9810;52.480;9.806;2022-11-13T10:18:12;5.80;99.90
19348;DHT22;9810;52.480;9.806;2022-11-13T10:20:46;5.50;99.90
19348;DHT22;9810;52.480;9.806;2022-11-13T10:23:19;6.00;99.90
19348;DHT22;9810;52.480;9.806;2022-11-13T10:25:47;6.10;99.90
19348;DHT22;9810;52.480;9.806;2022-11-13T10:28:17;5.60;99.90
19348;DHT22;9810;52.480;9.806;2022-11-13T10:30:47;5.70;99.90
19348;DHT22;9810;52.480;9.806;2022-11-13T10:33:19;5.70;99.90
19348;DHT22;9810;52.480;9.806;2022-11-13T10:35:54;5.80;99.90
19348;DHT22;9810;52.480;9.806;2022-11-13T10:38:26;5.80;99.90
19348;DHT22;9810;52.480;9.806;2022-11-13T10:41:04;5.80;99.90
19348;DHT22;9810;52.480;9.806;2022-11-13T10:43:33;5.80;99.90
19348;DHT22;9810;52.480;9.806;2022-11-13T10:46:03;5.90;99.90
19348;DHT22;9810;52.480;9.806;2022-11-13T10:48:32;6.10;99.90
19348;DHT22;9810;52.480;9.806;2022-11-13T10:51:04;6.20;99.90
19348;DHT22;9810;52.480;9.806;2022-11-13T10:53:38;6.20;99.90
19348;DHT22;9810;52.480;9.806;2022-11-13T10:56:26;6.40;99.90
19348;DHT22;9810;52.480;9.806;2022-11-13T10:59:02;6.20;99.90
19348;DHT22;9810;52.480;9.806;2022-11-13T11:01:30;6.10;99.90
19348;DHT22;9810;52.480;9.806;2022-11-13T11:03:57;6.20;99.90
19348;DHT22;9810;52.480;9.806;2022-11-13T11:06:33;6.10;99.90
19348;DHT22;9810;52.480;9.806;2022-11-13T11:09:06;6.40;99.90
19348;DHT22;9810;52.480;9.806;2022-11-13T11:11:34;6.30;99.90
19348;DHT22;9810;52.480;9.806;2022-11-13T11:14:37;6.50;99.90
19348;DHT22;9810;52.480;9.806;2022-11-13T11:17:07;6.60;99.90
19348;DHT22;9810;52.480;9.806;2022-11-13T11:19:38;6.60;99.90
19348;DHT22;9810;52.480;9.806;2022-11-13T11:22:13;6.30;99.90
19348;DHT22;9810;52.480;9.806;2022-11-13T11:24:48;6.60;99.90
19348;DHT22;9810;52.480;9.806;2022-11-13T11:27:20;6.60;99.90
19348;DHT22;9810;52.480;9.806;2022-11-13T11:29:53;6.60;99.90
19348;DHT22;9810;52.480;9.806;2022-11-13T11:32:30;6.70;99.90
19348;DHT22;9810;52.480;9.806;2022-11-13T11:35:04;6.90;99.90
19348;DHT22;9810;52.480;9.806;2022-11-13T11:37:38;6.90;99.90
19348;DHT22;9810;52.480;9.806;2022-11-13T11:40:15;7.00;99.90
19348;DHT22;9810;52.480;9.806;2022-11-13T11:42:46;7.10;99.90
19348;DHT22;9810;52.480;9.806;2022-11-13T11:45:23;7.10;99.90
19348;DHT22;9810;52.480;9.806;2022-11-13T11:47:51;7.20;99.90
19348;DHT22;9810;52.480;9.806;2022-11-13T11:50:29;7.20;99.90
19348;DHT22;9810;52.480;9.806;2022-11-13T11:53:04;7.30;99.90
19348;DHT22;9810;52.480;9.806;2022-11-13T11:56:02;7.20;99.90
19348;DHT22;9810;52.480;9.806;2022-11-13T12:01:36;7.20;99.90
19348;DHT22;9810;52.480;9.806;2022-11-13T12:04:15;7.30;99.90
19348;DHT22;9810;52.480;9.806;2022-11-13T12:06:58;7.30;99.90
19348;DHT22;9810;52.480;9.806;2022-11-13T12:09:31;7.30;99.90
19348;DHT22;9810;52.480;9.806;2022-11-13T12:12:05;7.40;99.90
19348;DHT22;9810;52.480;9.806;2022-11-13T12:14:45;7.30;99.90
19348;DHT22;9810;52.480;9.806;2022-11-13T12:17:29;7.20;99.90
19348;DHT22;9810;52.480;9.806;2022-11-13T12:20:08;7.10;99.90
19348;DHT22;9810;52.480;9.806;2022-11-13T12:22:46;7.10;99.90
19348;DHT22;9810;52.480;9.806;2022-11-13T12:25:23;7.10;99.90
19348;DHT22;9810;52.480;9.806;2022-11-13T12:27:58;6.90;99.90
19348;DHT22;9810;52.480;9.806;2022-11-13T12:30:35;7.00;99.90
19348;DHT22;9810;52.480;9.806;2022-11-13T12:33:17;7.10;99.90
19348;DHT22;9810;52.480;9.806;2022-11-13T12:35:50;7.10;99.90
19348;DHT22;9810;52.480;9.806;2022-11-13T12:38:29;7.20;99.90
19348;DHT22;9810;52.480;9.806;2022-11-13T12:41:04;7.40;99.90
19348;DHT22;9810;52.480;9.806;2022-11-13T12:44:16;7.30;99.90
19348;DHT22;9810;52.480;9.806;2022-11-13T12:46:45;7.50;99.90
19348;DHT22;9810;52.480;9.806;2022-11-13T12:49:27;7.40;99.90
19348;DHT22;9810;52.480;9.806;2022-11-13T12:51:56;7.40;99.90
19348;DHT22;9810;52.480;9.806;2022-11-13T12:54:27;7.40;99.90
19348;DHT22;9810;52.480;9.806;2022-11-13T12:57:19;7.40;99.90
19348;DHT22;9810;52.480;9.806;2022-11-13T12:59:50;7.30;99.90
19348;DHT22;9810;52.480;9.806;2022-11-13T13:05:26;7.20;99.90
19348;DHT22;9810;52.480;9.806;2022-11-13T13:11:22;7.20;99.90
19348;DHT22;9810;52.480;9.806;2022-11-13T13:14:26;7.20;99.90
19348;DHT22;9810;52.480;9.806;2022-11-13T13:17:08;7.00;99.90
19348;DHT22;9810;52.480;9.806;2022-11-13T13:19:43;7.00;99.90
19348;DHT22;9810;52.480;9.806;2022-11-13T13:22:23;7.20;99.90
19348;DHT22;9810;52.480;9.806;2022-11-13T13:24:59;7.10;99.90
19348;DHT22;9810;52.480;9.806;2022-11-13T13:27:27;7.10;99.90
19348;DHT22;9810;52.480;9.806;2022-11-13T13:29:57;7.20;99.90
19348;DHT22;9810;52.480;9.806;2022-11-13T13:32:30;6.90;99.90
19348;DHT22;9810;52.480;9.806;2022-11-13T13:35:08;6.90;99.90
19348;DHT22;9810;52.480;9.806;2022-11-13T13:37:45;6.90;99.90
19348;DHT22;9810;52.480;9.806;2022-11-13T13:40:22;7.00;99.90
19348;DHT22;9810;52.480;9.806;2022-11-13T13:43:08;7.00;99.90
19348;DHT22;9810;52.480;9.806;2022-11-13T13:45:48;7.10;99.90
19348;DHT22;9810;52.480;9.806;2022-11-13T13:48:20;7.10;99.90
19348;DHT22;9810;52.480;9.806;2022-11-13T13:50:50;6.80;99.90
19348;DHT22;9810;52.480;9.806;2022-11-13T13:53:21;7.00;99.90
19348;DHT22;9810;52.480;9.806;2022-11-13T13:55:52;6.90;99.90
19348;DHT22;9810;52.480;9.806;2022-11-13T13:58:24;7.00;99.90
19348;DHT22;9810;52.480;9.806;2022-11-13T14:00:58;7.10;99.90
19348;DHT22;9810;52.480;9.806;2022-11-13T14:03:28;7.20;99.90
19348;DHT22;9810;52.480;9.806;2022-11-13T14:06:16;6.90;99.90
19348;DHT22;9810;52.480;9.806;2022-11-13T14:08:45;7.20;99.90
19348;DHT22;9810;52.480;9.806;2022-11-13T14:11:16;7.10;99.90
19348;DHT22;9810;52.480;9.806;2022-11-13T14:13:44;7.20;99.90
19348;DHT22;9810;52.480;9.806;2022-11-13T14:16:15;7.20;99.90
19348;DHT22;9810;52.480;9.806;2022-11-13T14:19:02;7.00;99.90
19348;DHT22;9810;52.480;9.806;2022-11-13T14:21:32;6.80;99.90
19348;DHT22;9810;52.480;9.806;2022-11-13T14:24:00;7.00;99.90
19348;DHT22;9810;52.480;9.806;2022-11-13T14:26:28;7.00;99.90
19348;DHT22;9810;52.480;9.806;2022-11-13T14:29:02;7.10;99.90
19348;DHT22;9810;52.480;9.806;2022-11-13T14:32:02;7.00;99.90
19348;DHT22;9810;52.480;9.806;2022-11-13T14:34:30;6.90;99.90
19348;DHT22;9810;52.480;9.806;2022-11-13T14:37:21;7.00;99.90
19348;DHT22;9810;52.480;9.806;2022-11-13T14:43:17;7.00;99.90
19348;DHT22;9810;52.480;9.806;2022-11-13T14:45:54;7.00;99.90
19348;DHT22;9810;52.480;9.806;2022-11-13T14:48:25;7.00;99.90
19348;DHT22;9810;52.480;9.806;2022-11-13T14:50:58;6.90;99.90
19348;DHT22;9810;52.480;9.806;2022-11-13T14:53:28;6.80;99.90
19348;DHT22;9810;52.480;9.806;2022-11-13T14:55:58;6.80;99.90
19348;DHT22;9810;52.480;9.806;2022-11-13T14:58:27;6.70;99.90
19348;DHT22;9810;52.480;9.806;2022-11-13T15:00:55;6.90;99.90
19348;DHT22;9810;52.480;9.806;2022-11-13T15:03:28;6.70;99.90
19348;DHT22;9810;52.480;9.806;2022-11-13T15:05:55;6.80;99.90
19348;DHT22;9810;52.480;9.806;2022-11-13T15:08:28;6.80;99.90
19348;DHT22;9810;52.480;9.806;2022-11-13T15:10:59;6.80;99.90
19348;DHT22;9810;52.480;9.806;2022-11-13T15:13:27;6.80;99.90
19348;DHT22;9810;52.480;9.806;2022-11-13T15:15:56;6.70;99.90
19348;DHT22;9810;52.480;9.806;2022-11-13T15:18:25;6.90;99.90
19348;DHT22;9810;52.480;9.806;2022-11-13T15:20:53;6.70;99.90
19348;DHT22;9810;52.480;9.806;2022-11-13T15:23:23;6.80;99.90
19348;DHT22;9810;52.480;9.806;2022-11-13T15:25:53;6.80;99.90
19348;DHT22;9810;52.480;9.806;2022-11-13T15:28:20;6.90;99.90
19348;DHT22;9810;52.480;9.806;2022-11-13T15:30:48;6.90;99.90
19348;DHT22;9810;52.480;9.806;2022-11-13T15:33:15;6.80;99.90
19348;DHT22;9810;52.480;9.806;2022-11-13T15:35:44;6.90;99.90
19348;DHT22;9810;52.480;9.806;2022-11-13T15:38:12;6.90;99.90
19348;DHT22;9810;52.480;9.806;2022-11-13T15:40:39;6.90;99.90
19348;DHT22;9810;52.480;9.806;2022-11-13T15:43:11;7.00;99.90
19348;DHT22;9810;52.480;9.806;2022-11-13T15:45:40;7.00;99.90
19348;DHT22;9810;52.480;9.806;2022-11-13T15:48:08;7.00;99.90
19348;DHT22;9810;52.480;9.806;2022-11-13T15:50:36;7.00;99.90
19348;DHT22;9810;52.480;9.806;2022-11-13T15:53:06;7.10;99.90
19348;DHT22;9810;52.480;9.806;2022-11-13T15:55:38;7.10;99.90
19348;DHT22;9810;52.480;9.806;2022-11-13T15:58:15;7.10;99.90
19348;DHT22;9810;52.480;9.806;2022-11-13T16:00:42;7.10;99.90
19348;DHT22;9810;52.480;9.806;2022-11-13T16:03:10;7.10;99.90
19348;DHT22;9810;52.480;9.806;2022-11-13T16:05:38;7.10;99.90
19348;DHT22;9810;52.480;9.806;2022-11-13T16:08:11;7.20;99.90
19348;DHT22;9810;52.480;9.806;2022-11-13T16:10:39;7.20;99.90
19348;DHT22;9810;52.480;9.806;2022-11-13T16:13:06;7.20;99.90
19348;DHT22;9810;52.480;9.806;2022-11-13T16:15:34;7.20;99.90
19348;DHT22;9810;52.480;9.806;2022-11-13T16:18:01;7.30;99.90
19348;DHT22;9810;52.480;9.806;2022-11-13T16:20:29;7.40;99.90
19348;DHT22;9810;52.480;9.806;2022-11-13T16:22:56;7.30;99.90
19348;DHT22;9810;52.480;9.806;2022-11-13T16:25:25;7.40;99.90
19348;DHT22;9810;52.480;9.806;2022-11-13T16:27:52;7.40;99.90
19348;DHT22;9810;52.480;9.806;2022-11-13T16:30:21;7.40;99.90
19348;DHT22;9810;52.480;9.806;2022-11-13T16:32:49;7.50;99.90
19348;DHT22;9810;52.480;9.806;2022-11-13T16:35:18;7.50;99.90